Time;durP1;ratioP1;P1;durP2;ratioP2;P2;SDS_P1;SDS_P2;PMS_P1;PMS_P2;Temp;Humidity;BMP_temperature;BMP_pressure;BME280_temperature;BME280_humidity;BME280_pressure;Samples;Min_cycle;Max_cycle;Signal;HPM_P1;HPM_P2
2023/06/06 00:02:16;;;;;;;2.88;1.50;;;;;;;12.01;74.13;99883.56;5028067;28;20445;-36
2023/06/06 00:04:45;;;;;;;3.78;1.50;;;;;;;11.89;74.10;99869.22;5026657;28;20051;-37
2023/06/06 00:07:12;;;;;;;3.13;1.60;;;;;;;11.89;74.14;99856.19;5026975;28;20416;-37
2023/06/06 00:09:38;;;;;;;3.20;1.65;;;;;;;12.06;73.44;99886.84;5023995;28;20785;-37
2023/06/06 00:12:05;;;;;;;4.32;1.55;;;;;;;12.10;73.82;99891.88;5008252;28;20052;-37
2023/06/06 00:14:32;;;;;;;3.00;1.60;;;;;;;12.12;73.67;99890.09;5028981;28;20045;-37
2023/06/06 00:17:00;;;;;;;2.03;1.30;;;;;;;12.15;73.40;99889.09;5028774;28;20136;-37
2023/06/06 00:19:26;;;;;;;4.85;1.83;;;;;;;12.16;73.28;99888.19;5027683;28;20156;-37
2023/06/06 00:21:52;;;;;;;3.13;1.30;;;;;;;12.17;73.22;99887.28;5026290;28;20128;-36
2023/06/06 00:24:18;;;;;;;5.30;1.40;;;;;;;12.19;72.92;99891.56;5009555;28;20136;-36
2023/06/06 00:26:44;;;;;;;2.10;1.52;;;;;;;12.22;72.73;99880.16;5021076;28;20059;-36
2023/06/06 00:29:10;;;;;;;3.75;1.30;;;;;;;12.22;72.97;99882.75;5027411;28;20053;-36
2023/06/06 00:31:36;;;;;;;2.40;1.40;;;;;;;12.24;73.10;99892.25;5025896;28;20041;-37
2023/06/06 00:34:02;;;;;;;4.07;1.55;;;;;;;12.26;72.83;99881.72;5027331;28;20045;-37
2023/06/06 00:36:28;;;;;;;6.55;1.50;;;;;;;12.25;72.70;99893.06;5027126;28;20033;-36
2023/06/06 00:38:54;;;;;;;4.30;1.70;;;;;;;12.11;72.98;99871.88;5020455;28;20046;-36
2023/06/06 00:41:20;;;;;;;3.85;1.40;;;;;;;12.29;72.65;99905.09;5021654;28;20045;-37
2023/06/06 00:43:46;;;;;;;1.60;1.30;;;;;;;12.28;72.57;99911.22;5019659;28;20042;-39
2023/06/06 00:46:13;;;;;;;2.85;1.35;;;;;;;12.29;72.41;99908.56;5016169;28;20050;-36
2023/06/06 00:48:40;;;;;;;3.70;1.50;;;;;;;12.28;71.94;99912.06;5007979;28;20215;-37
2023/06/06 00:51:08;;;;;;;2.03;1.33;;;;;;;12.28;71.31;99906.00;5019393;28;20045;-36
2023/06/06 00:53:36;;;;;;;1.80;1.40;;;;;;;12.29;71.74;99903.34;5008721;28;20042;-37
2023/06/06 00:56:03;;;;;;;2.47;1.45;;;;;;;12.30;71.52;99912.84;5006716;28;20152;-37
2023/06/06 00:58:30;;;;;;;3.17;1.80;;;;;;;12.31;71.90;99911.06;4989571;28;20107;-36
2023/06/06 01:01:01;;;;;;;3.47;1.38;;;;;;;12.34;72.13;99907.53;5018661;28;20098;-36
2023/06/06 01:03:29;;;;;;;4.78;1.70;;;;;;;12.34;72.35;99912.75;5026974;28;20073;-36
2023/06/06 01:05:55;;;;;;;3.88;1.60;;;;;;;12.34;71.94;99915.34;5026049;28;20099;-36
2023/06/06 01:08:23;;;;;;;4.50;1.60;;;;;;;12.21;71.96;99892.34;4997676;28;20398;-36
2023/06/06 01:10:56;;;;;;;3.45;1.20;;;;;;;12.29;71.86;99903.34;5013045;28;20049;-37
2023/06/06 01:13:26;;;;;;;3.42;1.65;;;;;;;12.39;71.88;99929.91;5018218;28;20083;-37
2023/06/06 01:15:57;;;;;;;3.05;1.63;;;;;;;12.37;71.64;99923.88;5027703;28;20049;-36
2023/06/06 01:18:26;;;;;;;5.63;1.52;;;;;;;12.09;71.23;99869.31;4993925;28;20398;-36
2023/06/06 01:20:52;;;;;;;3.10;1.40;;;;;;;12.44;71.29;99925.38;5017605;28;20041;-36
2023/06/06 01:23:18;;;;;;;1.60;1.00;;;;;;;12.46;71.63;99927.91;5018068;28;20148;-36
2023/06/06 01:25:48;;;;;;;3.63;1.73;;;;;;;12.47;71.52;99927.84;5011649;28;20049;-37
2023/06/06 01:28:15;;;;;;;;;;;;;;;12.51;71.10;99923.38;5027735;28;20073;-36
2023/06/06 01:30:42;;;;;;;3.15;1.48;;;;;;;12.50;71.30;99925.13;5030116;28;19928;-37
2023/06/06 01:33:30;;;;;;;;;;;;;;;12.54;70.95;99931.06;5031462;28;20115;-36
2023/06/06 01:36:23;;;;;;;2.67;1.45;;;;;;;12.52;71.30;99925.91;5045928;28;19917;-36
2023/06/06 01:39:11;;;;;;;1.80;1.38;;;;;;;12.54;70.89;99933.69;5031869;28;20044;-36
2023/06/06 01:41:37;;;;;;;4.68;1.50;;;;;;;12.52;70.53;99933.75;5010717;28;20536;-36
2023/06/06 01:44:05;;;;;;;6.15;1.50;;;;;;;12.53;70.18;99926.75;5027547;28;20069;-36
2023/06/06 01:46:32;;;;;;;2.10;1.42;;;;;;;12.55;69.79;99940.59;5010736;28;20124;-36
2023/06/06 01:48:58;;;;;;;2.85;1.40;;;;;;;12.57;70.13;99944.84;5011367;28;20095;-37
2023/06/06 01:51:27;;;;;;;2.75;1.77;;;;;;;12.58;69.93;99936.13;5030171;28;20080;-37
2023/06/06 01:53:56;;;;;;;1.83;1.58;;;;;;;12.61;70.03;99940.38;5030804;28;20049;-36
2023/06/06 01:56:23;;;;;;;3.47;1.52;;;;;;;12.49;70.04;99914.75;5010311;28;20137;-36
2023/06/06 01:58:49;;;;;;;3.25;1.73;;;;;;;12.51;70.27;99911.16;4994692;28;20073;-37
2023/06/06 02:01:16;;;;;;;6.20;1.70;;;;;;;12.74;70.07;99939.84;5026100;28;20107;-37
2023/06/06 02:03:42;;;;;;;2.15;1.38;;;;;;;12.79;69.85;99944.88;4999410;28;20506;-37
2023/06/06 02:06:08;;;;;;;2.33;1.40;;;;;;;12.83;69.96;99943.81;5029350;28;20095;-37
2023/06/06 02:08:33;;;;;;;3.40;1.40;;;;;;;12.85;69.48;99942.03;5029348;28;20049;-36
2023/06/06 02:10:59;;;;;;;2.67;1.35;;;;;;;12.89;69.13;99946.19;5013704;28;20053;-37
2023/06/06 02:13:26;;;;;;;2.28;1.58;;;;;;;12.88;68.75;99946.25;5031594;28;20124;-38
2023/06/06 02:15:52;;;;;;;2.72;1.35;;;;;;;12.92;68.85;99938.28;5029287;28;20045;-38
2023/06/06 02:18:18;;;;;;;1.55;1.38;;;;;;;12.84;68.50;99922.06;5030097;28;20045;-36
2023/06/06 02:20:44;;;;;;;2.95;1.48;;;;;;;12.86;68.47;99928.06;5030306;28;20052;-36
2023/06/06 02:23:10;;;;;;;4.50;1.63;;;;;;;13.00;68.14;99945.78;5013078;28;20069;-36
2023/06/06 02:25:37;;;;;;;4.03;1.70;;;;;;;12.83;67.37;99917.72;5029249;28;20079;-41
2023/06/06 02:28:04;;;;;;;2.00;1.48;;;;;;;13.06;67.03;99953.38;5029680;28;20048;-36
2023/06/06 02:30:31;;;;;;;2.67;1.30;;;;;;;13.10;66.76;99950.56;5007971;28;20141;-36
2023/06/06 02:32:57;;;;;;;2.20;1.60;;;;;;;13.14;67.17;99952.16;5027698;28;20424;-35
2023/06/06 02:35:23;;;;;;;2.22;1.58;;;;;;;13.20;66.76;99960.66;5029946;28;20041;-36
2023/06/06 02:37:52;;;;;;;4.05;1.55;;;;;;;13.20;66.72;99958.91;5028977;28;20162;-36
2023/06/06 02:40:17;;;;;;;4.38;1.65;;;;;;;13.13;66.04;99953.09;5028977;28;20085;-37
2023/06/06 02:42:43;;;;;;;5.18;1.67;;;;;;;13.14;66.23;99961.75;5029554;28;20076;-36
2023/06/06 02:45:10;;;;;;;3.20;1.80;;;;;;;13.23;66.10;99960.56;5028465;28;20127;-36
2023/06/06 02:47:37;;;;;;;3.72;1.52;;;;;;;13.29;65.91;99957.69;5012256;28;20037;-37
2023/06/06 02:50:04;;;;;;;2.03;1.55;;;;;;;13.38;65.91;99955.56;5013277;28;20045;-36
2023/06/06 02:52:31;;;;;;;3.85;1.83;;;;;;;13.29;66.17;99928.97;5044714;28;20405;-36
2023/06/06 02:54:58;;;;;;;2.70;1.52;;;;;;;13.51;65.76;99959.34;5011046;28;20533;-36
2023/06/06 02:57:25;;;;;;;3.25;1.67;;;;;;;13.57;65.69;99964.31;5033315;28;20103;-37
2023/06/06 02:59:51;;;;;;;4.63;1.60;;;;;;;13.34;65.49;99912.19;5009018;28;20536;-37
2023/06/06 03:02:17;;;;;;;5.88;1.85;;;;;;;13.68;65.27;99955.16;5017780;28;20468;-37
2023/06/06 03:04:46;;;;;;;5.53;1.67;;;;;;;13.75;65.09;99967.91;5028545;28;20033;-37
2023/06/06 03:07:13;;;;;;;2.83;1.80;;;;;;;13.79;64.99;99959.03;5029331;28;20045;-36
2023/06/06 03:09:39;;;;;;;5.70;2.00;;;;;;;13.72;64.72;99962.81;5011944;28;20041;-37
2023/06/06 03:12:11;;;;;;;3.13;1.70;;;;;;;13.69;64.57;99969.94;5009101;28;20056;-37
2023/06/06 03:14:37;;;;;;;6.50;2.17;;;;;;;13.64;64.69;99970.13;5025804;28;20083;-37
2023/06/06 03:17:03;;;;;;;3.67;1.85;;;;;;;13.70;64.81;99975.09;5011420;28;20049;-37
2023/06/06 03:19:32;;;;;;;2.85;1.73;;;;;;;13.67;64.47;99976.97;5026933;28;20513;-36
2023/06/06 03:21:59;;;;;;;2.92;1.88;;;;;;;13.62;64.45;99973.72;5022006;28;20084;-37
2023/06/06 03:24:29;;;;;;;3.50;1.80;;;;;;;13.51;64.52;99969.78;5010157;28;20095;-37
2023/06/06 03:26:56;;;;;;;;;;;;;;;13.31;64.72;99976.75;5027833;28;20041;-37
2023/06/06 03:29:22;;;;;;;3.85;2.00;;;;;;;13.21;65.16;99971.06;5025462;28;20012;-37
2023/06/06 03:31:49;;;;;;;4.28;1.77;;;;;;;13.02;65.11;99952.66;5024817;28;20041;-42
2023/06/06 03:34:16;;;;;;;5.05;1.67;;;;;;;13.12;65.49;99977.50;5009317;28;20087;-36
2023/06/06 03:36:44;;;;;;;2.83;1.70;;;;;;;13.08;65.66;99975.06;5021250;28;20049;-36
2023/06/06 03:39:11;;;;;;;3.30;1.70;;;;;;;12.99;66.05;99975.38;5028275;28;20589;-38
2023/06/06 03:41:37;;;;;;;3.97;1.50;;;;;;;12.91;65.84;99967.88;5029667;28;20034;-37
2023/06/06 03:44:04;;;;;;;2.53;1.50;;;;;;;12.92;66.08;99980.03;5026903;28;20041;-36
2023/06/06 03:46:30;;;;;;;5.25;1.60;;;;;;;12.90;66.17;99968.78;5028141;28;20057;-36
2023/06/06 03:48:57;;;;;;;3.17;1.35;;;;;;;12.92;66.41;99979.16;5028312;28;20025;-36
2023/06/06 03:51:23;;;;;;;4.72;1.60;;;;;;;12.93;66.54;99970.41;5028307;28;20553;-36
2023/06/06 03:53:49;;;;;;;2.70;1.45;;;;;;;12.83;66.24;99950.81;5027967;28;20103;-37
2023/06/06 03:56:16;;;;;;;3.08;1.67;;;;;;;12.96;66.21;99975.53;5010247;28;20464;-36
2023/06/06 03:58:42;;;;;;;3.90;1.48;;;;;;;12.98;66.20;99974.53;5027612;28;20544;-37
2023/06/06 04:01:08;;;;;;;2.22;1.20;;;;;;;12.99;66.21;99976.25;5025800;28;20041;-36
2023/06/06 04:03:37;;;;;;;2.40;1.33;;;;;;;13.02;66.16;99977.91;5020138;28;20043;-37
2023/06/06 04:06:08;;;;;;;3.95;1.02;;;;;;;12.85;66.33;99949.84;5025831;28;20069;-37
2023/06/06 04:08:35;;;;;;;2.28;1.27;;;;;;;13.05;66.00;99978.63;5027260;28;20513;-36
2023/06/06 04:11:01;;;;;;;2.20;1.23;;;;;;;12.94;65.76;99952.09;5040350;28;20052;-37
2023/06/06 04:13:27;;;;;;;2.08;1.10;;;;;;;13.08;65.65;99964.59;5026965;28;20075;-37
2023/06/06 04:15:53;;;;;;;5.13;1.15;;;;;;;13.03;65.69;99953.50;5026538;28;20080;-37
2023/06/06 04:18:19;;;;;;;2.20;1.33;;;;;;;13.16;65.53;99973.00;5026863;28;20135;-36
2023/06/06 04:20:45;;;;;;;3.75;1.30;;;;;;;13.21;65.81;99978.03;5026892;28;20153;-37
2023/06/06 04:23:11;;;;;;;1.70;1.20;;;;;;;13.08;65.57;99941.13;5025644;28;20124;-37
2023/06/06 04:25:37;;;;;;;7.22;1.40;;;;;;;13.10;65.04;99944.50;5011558;28;20140;-37
2023/06/06 04:28:07;;;;;;;3.08;1.27;;;;;;;13.30;64.91;99967.22;5010070;28;20037;-35
2023/06/06 04:30:32;;;;;;;1.75;1.10;;;;;;;13.05;64.63;99926.41;5026892;28;20509;-37
2023/06/06 04:33:00;;;;;;;2.83;1.13;;;;;;;13.36;64.36;99967.81;5031585;28;20065;-38
2023/06/06 04:35:26;;;;;;;4.65;1.90;;;;;;;13.41;64.18;99967.63;5008456;28;20451;-37
2023/06/06 04:37:57;;;;;;;2.50;1.23;;;;;;;13.47;64.02;99970.84;5009798;28;20060;-36
2023/06/06 04:40:24;;;;;;;3.72;1.25;;;;;;;13.54;63.78;99968.81;5024451;28;20116;-36
2023/06/06 04:42:58;;;;;;;3.13;1.30;;;;;;;13.60;63.71;99965.09;5024547;28;20053;-38
2023/06/06 04:45:24;;;;;;;3.05;1.25;;;;;;;13.60;63.17;99965.09;5030374;28;20051;-36
2023/06/06 04:47:55;;;;;;;4.22;1.20;;;;;;;13.70;62.78;99979.47;5027962;28;20499;-37
2023/06/06 04:50:23;;;;;;;4.28;1.40;;;;;;;13.78;62.66;99978.22;5013219;28;20045;-37
2023/06/06 04:52:49;;;;;;;2.35;1.33;;;;;;;13.84;62.16;99977.97;5010247;28;20092;-37
2023/06/06 04:55:15;;;;;;;2.97;1.08;;;;;;;13.82;61.64;99971.94;5026086;28;20041;-37
2023/06/06 04:57:44;;;;;;;1.88;1.10;;;;;;;13.91;61.83;99983.78;5029739;28;20041;-36
2023/06/06 05:00:12;;;;;;;;;;;;;;;13.98;61.49;99972.13;5044441;28;20052;-39
2023/06/06 05:02:39;;;;;;;3.05;1.55;;;;;;;14.00;61.29;99971.16;5025191;28;19924;-37
2023/06/06 05:05:09;;;;;;;2.33;1.02;;;;;;;14.10;61.46;99966.38;5028425;28;20172;-40
2023/06/06 05:07:35;;;;;;;2.65;1.20;;;;;;;14.01;61.22;99930.19;5026963;28;20073;-38
2023/06/06 05:10:02;;;;;;;4.82;1.38;;;;;;;14.17;61.21;99943.44;5006425;28;20609;-36
2023/06/06 05:12:29;;;;;;;4.90;1.65;;;;;;;14.40;61.30;99956.34;5026409;28;20787;-35
2023/06/06 05:14:55;;;;;;;4.47;1.30;;;;;;;14.45;59.95;99967.44;4995356;28;20042;-36
2023/06/06 05:17:23;;;;;;;2.83;1.10;;;;;;;14.55;59.42;99966.09;5010546;28;20061;-36
2023/06/06 05:19:49;;;;;;;2.97;1.08;;;;;;;14.66;59.29;99965.59;5025490;28;20136;-36
2023/06/06 05:22:15;;;;;;;3.70;1.20;;;;;;;14.71;58.23;99961.00;5004221;28;20109;-37
2023/06/06 05:24:43;;;;;;;3.83;1.20;;;;;;;14.72;57.73;99971.41;5027025;28;20057;-35
2023/06/06 05:27:09;;;;;;;1.50;0.90;;;;;;;14.75;57.62;99966.03;4985888;28;20042;-38
2023/06/06 05:29:35;;;;;;;1.75;0.95;;;;;;;14.68;57.36;99942.84;5004770;28;20034;-36
2023/06/06 05:32:01;;;;;;;2.00;1.10;;;;;;;14.97;57.20;99972.88;5033551;28;20055;-36
2023/06/06 05:34:27;;;;;;;3.22;1.00;;;;;;;15.09;56.80;99967.03;5026314;28;20044;-37
2023/06/06 05:36:53;;;;;;;1.15;0.80;;;;;;;15.11;55.63;99963.44;5027808;28;20429;-35
2023/06/06 05:39:20;;;;;;;1.42;0.70;;;;;;;15.02;54.61;99936.84;5028322;28;20057;-36
2023/06/06 05:41:54;;;;;;;0.70;0.68;;;;;;;15.09;54.53;99933.00;5026807;28;20040;-36
2023/06/06 05:44:22;;;;;;;0.98;0.73;;;;;;;15.42;54.31;99967.16;5025817;28;20088;-36
2023/06/06 05:46:53;;;;;;;2.05;1.00;;;;;;;15.37;54.12;99938.59;5026611;28;20049;-40
2023/06/06 05:49:20;;;;;;;1.83;0.80;;;;;;;15.60;53.71;99959.25;5027694;28;20521;-35
2023/06/06 05:51:46;;;;;;;5.05;1.00;;;;;;;15.60;53.07;99938.28;4993402;28;20469;-36
2023/06/06 05:54:15;;;;;;;1.92;0.88;;;;;;;15.93;53.37;99953.22;4993052;28;20442;-37
2023/06/06 05:56:41;;;;;;;;;;;;;;;16.13;53.40;99954.78;5009596;28;20568;-37
2023/06/06 05:59:08;;;;;;;3.13;1.23;;;;;;;16.06;52.89;99925.44;5036831;28;19917;-36
2023/06/06 06:01:33;;;;;;;1.45;0.82;;;;;;;16.29;52.56;99953.06;5047496;28;20513;-36
2023/06/06 06:03:59;;;;;;;2.90;1.60;;;;;;;16.47;52.53;99950.31;5038172;28;20044;-36
2023/06/06 06:06:26;;;;;;;0.75;0.60;;;;;;;16.54;51.30;99951.66;5030158;28;20038;-36
2023/06/06 06:08:55;;;;;;;1.05;0.75;;;;;;;16.45;50.78;99943.44;5031341;28;20083;-37
2023/06/06 06:11:21;;;;;;;3.30;1.10;;;;;;;16.56;51.10;99946.31;5031066;28;20041;-37
2023/06/06 06:13:46;;;;;;;2.80;1.00;;;;;;;16.78;51.17;99938.16;5040659;28;20042;-37
2023/06/06 06:16:12;;;;;;;3.60;0.93;;;;;;;16.81;50.76;99920.44;5029955;28;20045;-37
2023/06/06 06:18:39;;;;;;;1.92;0.75;;;;;;;16.92;49.70;99935.59;5029801;28;20045;-38
2023/06/06 06:21:05;;;;;;;1.58;0.70;;;;;;;16.84;48.49;99945.69;5020385;28;20896;-37
2023/06/06 06:23:31;;;;;;;1.80;0.60;;;;;;;16.73;48.07;99922.66;5030330;28;20076;-38
2023/06/06 06:25:57;;;;;;;1.75;0.85;;;;;;;16.88;48.25;99945.44;5028108;28;20037;-37
2023/06/06 06:28:24;;;;;;;1.25;0.52;;;;;;;16.78;47.48;99927.66;5028070;28;20052;-37
2023/06/06 06:30:50;;;;;;;1.13;0.70;;;;;;;17.05;47.32;99946.25;5020127;28;20052;-37
2023/06/06 06:33:16;;;;;;;8.85;1.20;;;;;;;17.26;46.77;99931.91;5017116;28;20152;-36
2023/06/06 06:35:44;;;;;;;2.03;0.85;;;;;;;17.53;46.28;99943.44;5019816;28;20041;-36
2023/06/06 06:38:09;;;;;;;1.80;0.85;;;;;;;17.83;45.39;99934.69;5011916;28;20044;-36
2023/06/06 06:40:36;;;;;;;2.50;0.80;;;;;;;18.45;44.15;99936.09;5030224;28;20142;-35
2023/06/06 06:43:02;;;;;;;1.83;1.00;;;;;;;19.25;42.93;99938.81;5022448;28;20038;-35
2023/06/06 06:45:49;;;;;;;1.80;1.00;;;;;;;20.58;40.84;99910.25;5024586;28;20073;-35
2023/06/06 06:48:14;;;;;;;2.17;1.20;;;;;;;22.00;39.09;99926.97;5016925;28;20541;-36
2023/06/06 06:50:40;;;;;;;2.25;1.15;;;;;;;23.17;37.66;99941.41;5010629;28;20128;-36
2023/06/06 06:53:09;;;;;;;2.35;0.98;;;;;;;23.92;36.61;99907.59;5025936;28;20035;-35
2023/06/06 06:55:38;;;;;;;2.80;1.00;;;;;;;24.62;34.26;99943.16;5017392;28;20037;-36
2023/06/06 06:58:05;;;;;;;2.80;0.98;;;;;;;24.72;33.19;99936.88;5029084;28;20049;-36
2023/06/06 07:00:33;;;;;;;2.97;1.40;;;;;;;25.52;32.67;99927.88;5028356;28;20132;-36
2023/06/06 07:02:59;;;;;;;1.83;1.10;;;;;;;26.93;31.56;99912.53;5015075;28;20426;-36
2023/06/06 07:05:25;;;;;;;4.13;1.45;;;;;;;27.74;30.78;99941.81;5017044;28;20070;-36
2023/06/06 07:07:53;;;;;;;1.65;1.00;;;;;;;27.65;29.44;99930.19;5021911;28;20512;-36
2023/06/06 07:10:21;;;;;;;3.20;1.13;;;;;;;28.41;28.63;99927.69;5029887;28;20037;-36
2023/06/06 07:12:49;;;;;;;2.40;1.40;;;;;;;28.60;27.91;99923.91;5022812;28;20425;-37
2023/06/06 07:15:20;;;;;;;2.70;1.17;;;;;;;29.12;26.92;99908.47;5014990;28;20456;-36
2023/06/06 07:17:49;;;;;;;3.20;1.38;;;;;;;28.91;26.55;99929.53;5029775;28;20124;-36
2023/06/06 07:20:15;;;;;;;3.80;1.63;;;;;;;29.46;26.24;99903.00;4992375;28;20038;-36
2023/06/06 07:22:41;;;;;;;5.82;1.40;;;;;;;30.16;25.38;99924.69;5024098;28;20056;-36
2023/06/06 07:25:08;;;;;;;5.53;1.30;;;;;;;31.31;24.82;99903.28;5029298;28;20068;-37
2023/06/06 07:27:36;;;;;;;3.92;1.23;;;;;;;32.54;23.83;99928.78;5011804;28;20050;-37
2023/06/06 07:30:11;;;;;;;6.35;1.75;;;;;;;31.12;23.67;99933.34;5026777;28;20037;-37
2023/06/06 07:32:39;;;;;;;4.45;1.80;;;;;;;30.47;24.36;99906.81;5013412;28;20451;-36
2023/06/06 07:35:06;;;;;;;4.90;1.10;;;;;;;31.42;23.70;99924.38;5004205;28;20042;-36
2023/06/06 07:37:32;;;;;;;3.28;1.30;;;;;;;32.58;22.19;99929.25;5004496;28;20083;-36
2023/06/06 07:39:58;;;;;;;3.40;1.38;;;;;;;32.51;22.10;99921.06;5004792;28;20061;-36
2023/06/06 07:42:24;;;;;;;1.30;1.10;;;;;;;32.15;22.03;99936.31;5018980;28;20489;-37
2023/06/06 07:44:51;;;;;;;2.33;1.15;;;;;;;31.80;22.14;99927.09;5016671;28;20041;-37
2023/06/06 07:47:17;;;;;;;1.85;1.38;;;;;;;31.97;22.43;99920.53;5023079;28;20057;-37
2023/06/06 07:49:45;;;;;;;4.40;1.23;;;;;;;33.11;21.24;99915.38;5029481;28;20069;-36
2023/06/06 07:52:11;;;;;;;3.03;1.80;;;;;;;34.15;20.52;99897.56;5024860;28;20094;-37
2023/06/06 07:54:38;;;;;;;2.05;1.38;;;;;;;34.87;20.25;99926.78;5013179;28;20045;-37
2023/06/06 07:57:07;;;;;;;1.63;1.40;;;;;;;34.74;19.77;99921.38;5028089;28;20041;-38
2023/06/06 07:59:34;;;;;;;2.00;1.40;;;;;;;34.98;19.55;99906.44;5044226;28;20528;-37
2023/06/06 08:02:00;;;;;;;4.40;1.30;;;;;;;34.62;19.83;99912.13;5028755;28;20037;-37
2023/06/06 08:04:27;;;;;;;3.10;1.27;;;;;;;33.91;19.66;99895.34;5018329;28;20060;-37
2023/06/06 08:06:53;;;;;;;2.05;1.15;;;;;;;34.19;19.84;99904.25;5025370;28;20041;-36
2023/06/06 08:09:20;;;;;;;6.65;5.95;;;;;;;33.39;20.63;99903.84;5007774;28;20073;-36
2023/06/06 08:11:46;;;;;;;4.22;2.00;;;;;;;31.67;22.40;99892.75;5027979;28;20037;-36
2023/06/06 08:14:12;;;;;;;2.67;1.70;;;;;;;32.56;21.15;99897.13;5027078;28;20116;-36
2023/06/06 08:16:38;;;;;;;4.72;1.63;;;;;;;34.52;19.80;99901.72;5026901;28;20544;-36
2023/06/06 08:19:04;;;;;;;2.55;1.50;;;;;;;35.73;18.81;99908.84;5027814;28;20049;-37
2023/06/06 08:21:30;;;;;;;3.45;1.65;;;;;;;36.76;17.81;99894.38;5024569;28;20060;-35
2023/06/06 08:23:57;;;;;;;3.53;1.38;;;;;;;37.74;17.21;99894.72;5022782;28;20056;-37
2023/06/06 08:26:27;;;;;;;2.08;1.80;;;;;;;38.50;16.81;99894.34;5031347;28;20480;-38
2023/06/06 08:28:53;;;;;;;3.58;1.73;;;;;;;37.54;16.86;99883.19;5024058;28;20058;-37
2023/06/06 08:31:19;;;;;;;2.65;1.60;;;;;;;38.39;16.32;99859.75;5026675;28;20045;-37
2023/06/06 08:33:46;;;;;;;4.10;2.08;;;;;;;39.38;16.00;99870.06;5022026;28;20099;-36
2023/06/06 08:36:12;;;;;;;8.55;2.00;;;;;;;40.06;15.52;99894.00;5024774;28;20069;-36
2023/06/06 08:38:39;;;;;;;3.22;1.70;;;;;;;38.85;15.54;99892.59;5021798;28;20045;-37
2023/06/06 08:41:05;;;;;;;2.28;1.60;;;;;;;38.47;15.42;99892.09;5022280;28;20034;-36
2023/06/06 08:43:36;;;;;;;1.75;1.20;;;;;;;35.34;17.18;99869.09;5023003;28;20064;-37
2023/06/06 08:46:03;;;;;;;2.75;1.10;;;;;;;31.83;20.01;99879.13;5020102;28;20040;-36
2023/06/06 08:48:29;;;;;;;2.92;1.50;;;;;;;31.13;21.42;99849.06;5024863;28;20049;-37
2023/06/06 08:51:00;;;;;;;3.22;1.40;;;;;;;34.17;19.07;99871.22;5020758;28;20125;-37
2023/06/06 08:53:26;;;;;;;5.43;1.73;;;;;;;33.50;19.13;99869.09;5035429;28;20060;-36
2023/06/06 08:55:55;;;;;;;3.08;1.52;;;;;;;34.35;18.88;99873.38;5025975;28;20041;-36
2023/06/06 08:58:21;;;;;;;2.53;1.75;;;;;;;36.48;17.57;99877.63;5025389;28;20643;-36
2023/06/06 09:00:49;;;;;;;2.08;1.60;;;;;;;35.99;16.93;99848.41;5023620;28;20029;-37
2023/06/06 09:03:17;;;;;;;2.42;1.40;;;;;;;35.07;17.05;99860.09;5023235;28;20049;-36
2023/06/06 09:05:44;;;;;;;1.58;1.48;;;;;;;33.92;17.65;99843.03;5006246;28;20038;-37
2023/06/06 09:08:10;;;;;;;3.13;1.30;;;;;;;32.80;18.69;99844.81;5013730;28;20092;-36
2023/06/06 09:10:35;;;;;;;2.03;1.27;;;;;;;30.95;20.48;99837.72;5037860;28;20528;-37
2023/06/06 09:13:01;;;;;;;3.90;1.63;;;;;;;30.03;21.59;99841.28;5019770;28;20045;-36
2023/06/06 09:15:28;;;;;;;2.58;1.25;;;;;;;29.37;22.35;99816.44;5026394;28;20090;-36
2023/06/06 09:17:54;;;;;;;4.53;1.27;;;;;;;29.36;22.04;99833.50;5023350;28;20176;-35
2023/06/06 09:20:22;;;;;;;2.10;1.10;;;;;;;29.22;22.22;99825.28;5022247;28;20109;-36
2023/06/06 09:22:49;;;;;;;4.25;1.42;;;;;;;29.33;22.55;99824.97;5019834;28;20053;-36
2023/06/06 09:25:21;;;;;;;2.35;1.30;;;;;;;31.64;20.65;99817.00;5019002;28;20041;-36
2023/06/06 09:27:52;;;;;;;3.17;1.25;;;;;;;30.54;21.20;99827.28;5018680;28;20057;-36
2023/06/06 09:30:18;;;;;;;5.30;1.70;;;;;;;29.65;21.79;99813.38;5015550;28;20030;-36
2023/06/06 09:32:46;;;;;;;2.15;1.35;;;;;;;28.99;22.10;99796.53;5022422;28;20130;-36
2023/06/06 09:35:15;;;;;;;;;;;;;;;30.36;21.63;99817.81;5027492;28;20044;-36
2023/06/06 09:37:41;;;;;;;2.15;1.45;;;;;;;32.56;19.57;99816.34;5029653;28;20007;-37
2023/06/06 09:40:16;;;;;;;1.65;1.20;;;;;;;30.84;20.28;99820.19;5007272;28;20144;-37
2023/06/06 09:42:47;;;;;;;2.10;1.10;;;;;;;28.54;22.30;99812.16;5024794;28;20044;-37
2023/06/06 09:45:17;;;;;;;4.55;1.30;;;;;;;27.72;23.51;99812.84;5031015;28;20045;-36
2023/06/06 09:47:45;;;;;;;4.93;1.67;;;;;;;26.34;25.03;99813.47;5025417;28;20052;-37
2023/06/06 09:50:13;;;;;;;3.42;1.27;;;;;;;25.64;26.30;99814.94;5027645;28;20157;-36
2023/06/06 09:52:40;;;;;;;2.78;1.30;;;;;;;25.01;26.59;99811.94;5027607;28;20041;-37
2023/06/06 09:55:07;;;;;;;3.92;1.50;;;;;;;24.52;27.50;99804.06;5026783;28;20128;-36
2023/06/06 09:57:38;;;;;;;4.40;1.17;;;;;;;24.15;28.33;99812.63;5011718;28;20048;-36
2023/06/06 10:00:24;;;;;;;2.88;1.38;;;;;;;23.86;28.53;99809.88;5026386;28;20517;-36
2023/06/06 10:02:50;;;;;;;7.13;1.70;;;;;;;23.42;29.16;99805.72;5026609;28;20489;-37
2023/06/06 10:05:25;;;;;;;2.45;1.25;;;;;;;23.39;29.42;99799.84;5022422;28;20044;-38
2023/06/06 10:07:51;;;;;;;5.00;1.58;;;;;;;25.23;27.73;99808.94;5023125;28;20465;-37
2023/06/06 10:10:18;;;;;;;4.45;2.00;;;;;;;28.56;24.98;99816.38;5021422;28;20049;-37
2023/06/06 10:12:45;;;;;;;3.58;1.67;;;;;;;31.46;22.14;99823.53;4991812;28;20497;-36
2023/06/06 10:15:12;;;;;;;2.45;1.30;;;;;;;33.37;20.44;99827.72;5034893;28;20053;-38
2023/06/06 10:17:40;;;;;;;1.63;1.40;;;;;;;33.12;19.67;99824.59;5029032;28;20045;-38
2023/06/06 10:20:07;;;;;;;4.93;1.40;;;;;;;32.18;20.64;99786.13;5026726;28;20037;-37
2023/06/06 10:22:34;;;;;;;2.05;1.30;;;;;;;29.86;22.72;99813.66;5022323;28;20045;-41
2023/06/06 10:25:05;;;;;;;3.00;1.33;;;;;;;28.05;24.39;99797.81;5038930;28;20041;-37
2023/06/06 10:27:46;;;;;;;4.05;1.70;;;;;;;27.33;25.70;99769.69;5014131;28;20046;-36
2023/06/06 10:30:18;;;;;;;5.60;1.40;;;;;;;26.93;25.67;99813.78;5019909;28;20044;-37
2023/06/06 10:33:21;;;;;;;2.55;1.10;;;;;;;25.22;27.45;99804.63;5022544;28;20407;-36
2023/06/06 10:35:52;;;;;;;3.35;1.30;;;;;;;24.42;28.44;99802.22;5017107;28;20041;-37
2023/06/06 10:38:18;;;;;;;3.60;1.50;;;;;;;24.32;28.92;99801.38;5025814;28;20033;-37
2023/06/06 10:41:00;;;;;;;2.58;1.35;;;;;;;24.67;28.74;99806.16;5019466;28;20061;-37
2023/06/06 10:43:35;;;;;;;2.42;1.40;;;;;;;24.79;28.65;99812.19;5025536;28;20065;-36
2023/06/06 10:46:02;;;;;;;3.88;1.50;;;;;;;24.27;29.45;99806.25;5008948;28;20140;-37
2023/06/06 10:48:36;;;;;;;2.72;1.60;;;;;;;23.98;29.84;99803.47;5025033;28;20133;-36
2023/06/06 10:51:03;;;;;;;3.90;1.60;;;;;;;24.62;29.43;99800.44;5027399;28;20051;-36
2023/06/06 10:53:30;;;;;;;3.35;1.38;;;;;;;25.43;28.55;99759.19;5027959;28;20454;-36
2023/06/06 10:55:56;;;;;;;3.97;1.75;;;;;;;27.37;27.38;99801.25;5023555;28;20038;-37
2023/06/06 10:58:42;;;;;;;2.03;1.48;;;;;;;30.09;24.76;99805.72;5026222;28;20043;-36
2023/06/06 11:01:08;;;;;;;3.33;1.60;;;;;;;29.78;24.11;99782.31;5025723;28;21012;-36
2023/06/06 11:03:39;;;;;;;3.35;1.60;;;;;;;30.10;23.81;99797.47;5024104;28;20037;-36
2023/06/06 11:06:06;;;;;;;2.83;1.58;;;;;;;32.03;22.25;99803.28;5040706;28;20049;-36
2023/06/06 11:08:33;;;;;;;2.60;1.60;;;;;;;31.95;21.53;99796.13;5041164;28;20100;-36
2023/06/06 11:11:18;;;;;;;2.00;1.60;;;;;;;33.06;20.48;99790.34;5027058;28;20052;-36
2023/06/06 11:14:07;;;;;;;5.78;1.95;;;;;;;33.00;20.23;99783.03;5019427;28;20417;-36
2023/06/06 11:16:40;;;;;;;2.28;1.73;;;;;;;33.96;19.76;99787.66;5007297;28;20049;-36
2023/06/06 11:19:17;;;;;;;1.88;1.70;;;;;;;34.96;19.37;99785.06;5022100;28;20076;-36
2023/06/06 11:21:45;;;;;;;2.17;1.98;;;;;;;34.64;18.77;99789.34;5012600;28;20033;-36
2023/06/06 11:24:12;;;;;;;2.95;2.00;;;;;;;33.90;19.32;99781.19;5028464;28;20098;-36
2023/06/06 11:26:40;;;;;;;2.63;1.55;;;;;;;34.36;18.48;99773.28;5038978;28;20049;-36
2023/06/06 11:29:10;;;;;;;7.50;1.80;;;;;;;31.93;20.55;99769.41;5016923;28;20084;-36
2023/06/06 11:31:38;;;;;;;3.67;1.70;;;;;;;29.95;22.14;99769.72;5019781;28;20423;-36
2023/06/06 11:34:09;;;;;;;2.03;1.42;;;;;;;28.47;23.74;99765.69;5026018;28;20037;-36
2023/06/06 11:36:36;;;;;;;7.07;1.83;;;;;;;27.01;25.70;99769.47;5021664;28;20056;-36
2023/06/06 11:39:04;;;;;;;2.83;1.55;;;;;;;26.48;26.61;99775.66;5019132;28;20061;-37